<?xml version="1.0" encoding="UTF-8"?>
<gpx xmlns:xsi="http://www.w3.org/2001/XMLSchema-instance" xsi:schemaLocation="http://www.topografix.com/GPX/1/1 http://www.topografix.com/GPX/1/1/gpx.xsd" creator="StravaGPX" version="1.1" xmlns="http://www.topografix.com/GPX/1/1">
 <metadata>
  <time>2025-09-08T15:18:23Z</time>
 </metadata>
 <trk>
  <name>Navan loop walk</name>
  <type>walking</type>
  <trkseg>
   <trkpt lat="53.6558400" lon="-6.6868600">
    <ele>36.6</ele>
    <time>2025-09-08T15:18:23Z</time>
   </trkpt>
   <trkpt lat="53.6558480" lon="-6.6867840">
    <ele>36.5</ele>
    <time>2025-09-08T15:18:53Z</time>
   </trkpt>
   <trkpt lat="53.6558230" lon="-6.6866530">
    <ele>36.3</ele>
    <time>2025-09-08T15:18:58Z</time>
   </trkpt>
   <trkpt lat="53.6558140" lon="-6.6865510">
    <ele>36.1</ele>
    <time>2025-09-08T15:19:04Z</time>
   </trkpt>
   <trkpt lat="53.6557840" lon="-6.6864890">
    <ele>35.9</ele>
    <time>2025-09-08T15:19:09Z</time>
   </trkpt>
   <trkpt lat="53.6557180" lon="-6.6864710">
    <ele>35.9</ele>
    <time>2025-09-08T15:19:15Z</time>
   </trkpt>
   <trkpt lat="53.6556490" lon="-6.6864700">
    <ele>35.9</ele>
    <time>2025-09-08T15:19:20Z</time>
   </trkpt>
   <trkpt lat="53.6555860" lon="-6.6864980">
    <ele>36.1</ele>
    <time>2025-09-08T15:19:26Z</time>
   </trkpt>
   <trkpt lat="53.6555420" lon="-6.6865210">
    <ele>36.3</ele>
    <time>2025-09-08T15:19:42Z</time>
   </trkpt>
   <trkpt lat="53.6554810" lon="-6.6865000">
    <ele>36.5</ele>
    <time>2025-09-08T15:19:47Z</time>
   </trkpt>
   <trkpt lat="53.6555310" lon="-6.6864720">
    <ele>36.6</ele>
    <time>2025-09-08T15:20:14Z</time>
   </trkpt>
   <trkpt lat="53.6555730" lon="-6.6863380">
    <ele>36.4</ele>
    <time>2025-09-08T15:20:20Z</time>
   </trkpt>
   <trkpt lat="53.6555830" lon="-6.6862340">
    <ele>36.2</ele>
    <time>2025-09-08T15:20:25Z</time>
   </trkpt>
   <trkpt lat="53.6555930" lon="-6.6861480">
    <ele>36.0</ele>
    <time>2025-09-08T15:20:30Z</time>
   </trkpt>
   <trkpt lat="53.6555860" lon="-6.6860550">
    <ele>35.9</ele>
    <time>2025-09-08T15:20:35Z</time>
   </trkpt>
   <trkpt lat="53.6555440" lon="-6.6859280">
    <ele>35.8</ele>
    <time>2025-09-08T15:20:41Z</time>
   </trkpt>
   <trkpt lat="53.6555020" lon="-6.6858170">
    <ele>35.7</ele>
    <time>2025-09-08T15:20:46Z</time>
   </trkpt>
   <trkpt lat="53.6554510" lon="-6.6856910">
    <ele>35.7</ele>
    <time>2025-09-08T15:20:51Z</time>
   </trkpt>
   <trkpt lat="53.6553980" lon="-6.6855180">
    <ele>35.7</ele>
    <time>2025-09-08T15:20:57Z</time>
   </trkpt>
   <trkpt lat="53.6553760" lon="-6.6853740">
    <ele>35.8</ele>
    <time>2025-09-08T15:21:03Z</time>
   </trkpt>
   <trkpt lat="53.6553750" lon="-6.6852620">
    <ele>35.8</ele>
    <time>2025-09-08T15:21:08Z</time>
   </trkpt>
   <trkpt lat="53.6553700" lon="-6.6851580">
    <ele>35.8</ele>
    <time>2025-09-08T15:21:13Z</time>
   </trkpt>
   <trkpt lat="53.6553580" lon="-6.6850420">
    <ele>35.8</ele>
    <time>2025-09-08T15:21:19Z</time>
   </trkpt>
   <trkpt lat="53.6553620" lon="-6.6849470">
    <ele>35.7</ele>
    <time>2025-09-08T15:21:24Z</time>
   </trkpt>
   <trkpt lat="53.6553630" lon="-6.6848410">
    <ele>35.7</ele>
    <time>2025-09-08T15:21:30Z</time>
   </trkpt>
   <trkpt lat="53.6553580" lon="-6.6847240">
    <ele>35.6</ele>
    <time>2025-09-08T15:21:36Z</time>
   </trkpt>
   <trkpt lat="53.6553460" lon="-6.6846330">
    <ele>35.6</ele>
    <time>2025-09-08T15:21:41Z</time>
   </trkpt>
   <trkpt lat="53.6553360" lon="-6.6845430">
    <ele>35.5</ele>
    <time>2025-09-08T15:21:47Z</time>
   </trkpt>
   <trkpt lat="53.6553310" lon="-6.6844530">
    <ele>35.5</ele>
    <time>2025-09-08T15:21:53Z</time>
   </trkpt>
   <trkpt lat="53.6553310" lon="-6.6843460">
    <ele>35.5</ele>
    <time>2025-09-08T15:21:58Z</time>
   </trkpt>
   <trkpt lat="53.6553130" lon="-6.6841890">
    <ele>35.4</ele>
    <time>2025-09-08T15:22:04Z</time>
   </trkpt>
   <trkpt lat="53.6552970" lon="-6.6840830">
    <ele>35.4</ele>
    <time>2025-09-08T15:22:09Z</time>
   </trkpt>
   <trkpt lat="53.6552750" lon="-6.6839760">
    <ele>35.4</ele>
    <time>2025-09-08T15:22:14Z</time>
   </trkpt>
   <trkpt lat="53.6552690" lon="-6.6838580">
    <ele>35.3</ele>
    <time>2025-09-08T15:22:20Z</time>
   </trkpt>
   <trkpt lat="53.6552630" lon="-6.6837570">
    <ele>35.3</ele>
    <time>2025-09-08T15:22:25Z</time>
   </trkpt>
   <trkpt lat="53.6552490" lon="-6.6836620">
    <ele>35.3</ele>
    <time>2025-09-08T15:22:30Z</time>
   </trkpt>
   <trkpt lat="53.6552360" lon="-6.6835480">
    <ele>35.2</ele>
    <time>2025-09-08T15:22:35Z</time>
   </trkpt>
   <trkpt lat="53.6552170" lon="-6.6834240">
    <ele>35.2</ele>
    <time>2025-09-08T15:22:41Z</time>
   </trkpt>
   <trkpt lat="53.6551870" lon="-6.6833220">
    <ele>35.2</ele>
    <time>2025-09-08T15:22:46Z</time>
   </trkpt>
   <trkpt lat="53.6551530" lon="-6.6832030">
    <ele>35.2</ele>
    <time>2025-09-08T15:22:52Z</time>
   </trkpt>
   <trkpt lat="53.6551200" lon="-6.6830500">
    <ele>35.2</ele>
    <time>2025-09-08T15:22:57Z</time>
   </trkpt>
   <trkpt lat="53.6550850" lon="-6.6828940">
    <ele>35.0</ele>
    <time>2025-09-08T15:23:03Z</time>
   </trkpt>
   <trkpt lat="53.6550440" lon="-6.6827740">
    <ele>34.8</ele>
    <time>2025-09-08T15:23:08Z</time>
   </trkpt>
   <trkpt lat="53.6549980" lon="-6.6826810">
    <ele>34.6</ele>
    <time>2025-09-08T15:23:14Z</time>
   </trkpt>
   <trkpt lat="53.6549520" lon="-6.6826080">
    <ele>34.4</ele>
    <time>2025-09-08T15:23:20Z</time>
   </trkpt>
   <trkpt lat="53.6549130" lon="-6.6825430">
    <ele>34.3</ele>
    <time>2025-09-08T15:23:25Z</time>
   </trkpt>
   <trkpt lat="53.6549560" lon="-6.6825140">
    <ele>34.2</ele>
    <time>2025-09-08T15:23:33Z</time>
   </trkpt>
   <trkpt lat="53.6549400" lon="-6.6825870">
    <ele>34.1</ele>
    <time>2025-09-08T15:23:58Z</time>
   </trkpt>
   <trkpt lat="53.6548950" lon="-6.6825290">
    <ele>34.1</ele>
    <time>2025-09-08T15:24:26Z</time>
   </trkpt>
   <trkpt lat="53.6548540" lon="-6.6824650">
    <ele>34.1</ele>
    <time>2025-09-08T15:24:32Z</time>
   </trkpt>
   <trkpt lat="53.6547810" lon="-6.6824990">
    <ele>34.1</ele>
    <time>2025-09-08T15:24:37Z</time>
   </trkpt>
   <trkpt lat="53.6547460" lon="-6.6825640">
    <ele>34.2</ele>
    <time>2025-09-08T15:25:03Z</time>
   </trkpt>
   <trkpt lat="53.6546710" lon="-6.6826250">
    <ele>34.5</ele>
    <time>2025-09-08T15:25:09Z</time>
   </trkpt>
   <trkpt lat="53.6545640" lon="-6.6826210">
    <ele>34.8</ele>
    <time>2025-09-08T15:25:15Z</time>
   </trkpt>
   <trkpt lat="53.6544960" lon="-6.6826860">
    <ele>35.2</ele>
    <time>2025-09-08T15:25:20Z</time>
   </trkpt>
   <trkpt lat="53.6544440" lon="-6.6827840">
    <ele>35.7</ele>
    <time>2025-09-08T15:25:26Z</time>
   </trkpt>
   <trkpt lat="53.6543710" lon="-6.6828510">
    <ele>36.3</ele>
    <time>2025-09-08T15:25:31Z</time>
   </trkpt>
   <trkpt lat="53.6543280" lon="-6.6829280">
    <ele>36.9</ele>
    <time>2025-09-08T15:25:36Z</time>
   </trkpt>
   <trkpt lat="53.6542860" lon="-6.6829600">
    <ele>37.5</ele>
    <time>2025-09-08T15:25:44Z</time>
   </trkpt>
   <trkpt lat="53.6542480" lon="-6.6830300">
    <ele>37.9</ele>
    <time>2025-09-08T15:25:49Z</time>
   </trkpt>
   <trkpt lat="53.6541950" lon="-6.6830930">
    <ele>38.3</ele>
    <time>2025-09-08T15:25:54Z</time>
   </trkpt>
   <trkpt lat="53.6541200" lon="-6.6831570">
    <ele>38.8</ele>
    <time>2025-09-08T15:26:00Z</time>
   </trkpt>
   <trkpt lat="53.6540540" lon="-6.6831740">
    <ele>39.3</ele>
    <time>2025-09-08T15:26:05Z</time>
   </trkpt>
   <trkpt lat="53.6540030" lon="-6.6832460">
    <ele>39.8</ele>
    <time>2025-09-08T15:26:11Z</time>
   </trkpt>
   <trkpt lat="53.6539500" lon="-6.6833310">
    <ele>40.3</ele>
    <time>2025-09-08T15:26:16Z</time>
   </trkpt>
   <trkpt lat="53.6539050" lon="-6.6833960">
    <ele>40.9</ele>
    <time>2025-09-08T15:26:21Z</time>
   </trkpt>
   <trkpt lat="53.6538500" lon="-6.6834400">
    <ele>41.3</ele>
    <time>2025-09-08T15:26:26Z</time>
   </trkpt>
   <trkpt lat="53.6538000" lon="-6.6835160">
    <ele>41.8</ele>
    <time>2025-09-08T15:26:31Z</time>
   </trkpt>
   <trkpt lat="53.6537580" lon="-6.6835490">
    <ele>42.2</ele>
    <time>2025-09-08T15:26:37Z</time>
   </trkpt>
   <trkpt lat="53.6537160" lon="-6.6836040">
    <ele>42.5</ele>
    <time>2025-09-08T15:26:42Z</time>
   </trkpt>
   <trkpt lat="53.6536740" lon="-6.6836950">
    <ele>43.0</ele>
    <time>2025-09-08T15:26:47Z</time>
   </trkpt>
   <trkpt lat="53.6536360" lon="-6.6838140">
    <ele>43.3</ele>
    <time>2025-09-08T15:26:53Z</time>
   </trkpt>
   <trkpt lat="53.6535930" lon="-6.6838500">
    <ele>43.6</ele>
    <time>2025-09-08T15:26:58Z</time>
   </trkpt>
   <trkpt lat="53.6535510" lon="-6.6838920">
    <ele>43.8</ele>
    <time>2025-09-08T15:27:04Z</time>
   </trkpt>
   <trkpt lat="53.6535040" lon="-6.6839400">
    <ele>44.1</ele>
    <time>2025-09-08T15:27:09Z</time>
   </trkpt>
   <trkpt lat="53.6534510" lon="-6.6839960">
    <ele>44.3</ele>
    <time>2025-09-08T15:27:14Z</time>
   </trkpt>
   <trkpt lat="53.6534050" lon="-6.6840230">
    <ele>44.5</ele>
    <time>2025-09-08T15:27:19Z</time>
   </trkpt>
   <trkpt lat="53.6533820" lon="-6.6839310">
    <ele>44.5</ele>
    <time>2025-09-08T15:27:24Z</time>
   </trkpt>
   <trkpt lat="53.6533430" lon="-6.6838760">
    <ele>44.5</ele>
    <time>2025-09-08T15:27:30Z</time>
   </trkpt>
   <trkpt lat="53.6532880" lon="-6.6839070">
    <ele>44.5</ele>
    <time>2025-09-08T15:27:35Z</time>
   </trkpt>
   <trkpt lat="53.6532510" lon="-6.6838610">
    <ele>44.5</ele>
    <time>2025-09-08T15:27:58Z</time>
   </trkpt>
   <trkpt lat="53.6532030" lon="-6.6838270">
    <ele>44.4</ele>
    <time>2025-09-08T15:28:25Z</time>
   </trkpt>
   <trkpt lat="53.6531630" lon="-6.6838680">
    <ele>44.4</ele>
    <time>2025-09-08T15:28:35Z</time>
   </trkpt>
   <trkpt lat="53.6530610" lon="-6.6839400">
    <ele>44.4</ele>
    <time>2025-09-08T15:28:40Z</time>
   </trkpt>
   <trkpt lat="53.6529840" lon="-6.6840110">
    <ele>44.4</ele>
    <time>2025-09-08T15:28:46Z</time>
   </trkpt>
   <trkpt lat="53.6529460" lon="-6.6840770">
    <ele>44.5</ele>
    <time>2025-09-08T15:29:06Z</time>
   </trkpt>
   <trkpt lat="53.6528890" lon="-6.6842120">
    <ele>44.9</ele>
    <time>2025-09-08T15:32:33Z</time>
   </trkpt>
   <trkpt lat="53.6526420" lon="-6.6841740">
    <ele>44.8</ele>
    <time>2025-09-08T15:36:22Z</time>
   </trkpt>
   <trkpt lat="53.6524820" lon="-6.6841700">
    <ele>44.7</ele>
    <time>2025-09-08T15:36:27Z</time>
   </trkpt>
   <trkpt lat="53.6528940" lon="-6.6842160">
    <ele>44.8</ele>
    <time>2025-09-08T15:36:39Z</time>
   </trkpt>
   <trkpt lat="53.6529470" lon="-6.6842980">
    <ele>45.0</ele>
    <time>2025-09-08T15:44:07Z</time>
   </trkpt>
   <trkpt lat="53.6529090" lon="-6.6842460">
    <ele>45.2</ele>
    <time>2025-09-08T15:45:16Z</time>
   </trkpt>
   <trkpt lat="53.6529220" lon="-6.6843320">
    <ele>45.0</ele>
    <time>2025-09-08T15:56:25Z</time>
   </trkpt>
   <trkpt lat="53.6529260" lon="-6.6844190">
    <ele>45.3</ele>
    <time>2025-09-08T15:56:36Z</time>
   </trkpt>
   <trkpt lat="53.6529040" lon="-6.6842940">
    <ele>45.4</ele>
    <time>2025-09-08T15:56:44Z</time>
   </trkpt>
   <trkpt lat="53.6528930" lon="-6.6842110">
    <ele>45.2</ele>
    <time>2025-09-08T15:56:50Z</time>
   </trkpt>
   <trkpt lat="53.6528110" lon="-6.6841810">
    <ele>44.6</ele>
    <time>2025-09-08T16:01:48Z</time>
   </trkpt>
   <trkpt lat="53.6528520" lon="-6.6841330">
    <ele>44.6</ele>
    <time>2025-09-08T16:02:02Z</time>
   </trkpt>
   <trkpt lat="53.6528960" lon="-6.6841080">
    <ele>44.6</ele>
    <time>2025-09-08T16:02:07Z</time>
   </trkpt>
   <trkpt lat="53.6529280" lon="-6.6841680">
    <ele>44.8</ele>
    <time>2025-09-08T16:02:40Z</time>
   </trkpt>
   <trkpt lat="53.6529740" lon="-6.6842990">
    <ele>44.9</ele>
    <time>2025-09-08T16:02:45Z</time>
   </trkpt>
   <trkpt lat="53.6529520" lon="-6.6844400">
    <ele>45.2</ele>
    <time>2025-09-08T16:02:51Z</time>
   </trkpt>
   <trkpt lat="53.6529430" lon="-6.6845250">
    <ele>45.5</ele>
    <time>2025-09-08T16:03:06Z</time>
   </trkpt>
   <trkpt lat="53.6529020" lon="-6.6845620">
    <ele>45.7</ele>
    <time>2025-09-08T16:03:41Z</time>
   </trkpt>
   <trkpt lat="53.6528780" lon="-6.6844870">
    <ele>45.7</ele>
    <time>2025-09-08T16:04:07Z</time>
   </trkpt>
   <trkpt lat="53.6528880" lon="-6.6847310">
    <ele>45.8</ele>
    <time>2025-09-08T16:04:13Z</time>
   </trkpt>
   <trkpt lat="53.6528650" lon="-6.6848560">
    <ele>46.0</ele>
    <time>2025-09-08T16:04:19Z</time>
   </trkpt>
   <trkpt lat="53.6528420" lon="-6.6849430">
    <ele>46.1</ele>
    <time>2025-09-08T16:04:24Z</time>
   </trkpt>
   <trkpt lat="53.6528000" lon="-6.6850330">
    <ele>46.2</ele>
    <time>2025-09-08T16:04:30Z</time>
   </trkpt>
   <trkpt lat="53.6527710" lon="-6.6851120">
    <ele>46.2</ele>
    <time>2025-09-08T16:04:35Z</time>
   </trkpt>
   <trkpt lat="53.6527390" lon="-6.6851830">
    <ele>46.2</ele>
    <time>2025-09-08T16:04:40Z</time>
   </trkpt>
   <trkpt lat="53.6526790" lon="-6.6852370">
    <ele>46.1</ele>
    <time>2025-09-08T16:04:46Z</time>
   </trkpt>
   <trkpt lat="53.6526270" lon="-6.6852990">
    <ele>45.9</ele>
    <time>2025-09-08T16:04:51Z</time>
   </trkpt>
   <trkpt lat="53.6525890" lon="-6.6853590">
    <ele>45.8</ele>
    <time>2025-09-08T16:04:57Z</time>
   </trkpt>
   <trkpt lat="53.6525550" lon="-6.6854570">
    <ele>45.5</ele>
    <time>2025-09-08T16:05:02Z</time>
   </trkpt>
   <trkpt lat="53.6525300" lon="-6.6855640">
    <ele>45.2</ele>
    <time>2025-09-08T16:05:07Z</time>
   </trkpt>
   <trkpt lat="53.6525070" lon="-6.6856860">
    <ele>44.9</ele>
    <time>2025-09-08T16:05:13Z</time>
   </trkpt>
   <trkpt lat="53.6524830" lon="-6.6857800">
    <ele>44.5</ele>
    <time>2025-09-08T16:05:19Z</time>
   </trkpt>
   <trkpt lat="53.6524600" lon="-6.6858520">
    <ele>44.1</ele>
    <time>2025-09-08T16:05:31Z</time>
   </trkpt>
   <trkpt lat="53.6524380" lon="-6.6860040">
    <ele>43.9</ele>
    <time>2025-09-08T16:05:36Z</time>
   </trkpt>
   <trkpt lat="53.6524020" lon="-6.6860900">
    <ele>43.7</ele>
    <time>2025-09-08T16:05:41Z</time>
   </trkpt>
   <trkpt lat="53.6523550" lon="-6.6861640">
    <ele>43.6</ele>
    <time>2025-09-08T16:05:46Z</time>
   </trkpt>
   <trkpt lat="53.6523250" lon="-6.6862940">
    <ele>43.5</ele>
    <time>2025-09-08T16:05:52Z</time>
   </trkpt>
   <trkpt lat="53.6522680" lon="-6.6863520">
    <ele>43.3</ele>
    <time>2025-09-08T16:05:57Z</time>
   </trkpt>
   <trkpt lat="53.6522220" lon="-6.6864440">
    <ele>43.2</ele>
    <time>2025-09-08T16:06:03Z</time>
   </trkpt>
   <trkpt lat="53.6521930" lon="-6.6865180">
    <ele>43.1</ele>
    <time>2025-09-08T16:06:08Z</time>
   </trkpt>
   <trkpt lat="53.6521790" lon="-6.6866190">
    <ele>43.0</ele>
    <time>2025-09-08T16:06:14Z</time>
   </trkpt>
   <trkpt lat="53.6521570" lon="-6.6866980">
    <ele>42.9</ele>
    <time>2025-09-08T16:06:20Z</time>
   </trkpt>
   <trkpt lat="53.6521400" lon="-6.6867750">
    <ele>42.8</ele>
    <time>2025-09-08T16:06:56Z</time>
   </trkpt>
   <trkpt lat="53.6521240" lon="-6.6868540">
    <ele>42.7</ele>
    <time>2025-09-08T16:07:12Z</time>
   </trkpt>
   <trkpt lat="53.6521040" lon="-6.6870200">
    <ele>42.6</ele>
    <time>2025-09-08T16:07:17Z</time>
   </trkpt>
   <trkpt lat="53.6520830" lon="-6.6871660">
    <ele>42.5</ele>
    <time>2025-09-08T16:07:22Z</time>
   </trkpt>
   <trkpt lat="53.6520540" lon="-6.6873170">
    <ele>42.4</ele>
    <time>2025-09-08T16:07:28Z</time>
   </trkpt>
   <trkpt lat="53.6520960" lon="-6.6873630">
    <ele>42.3</ele>
    <time>2025-09-08T16:07:38Z</time>
   </trkpt>
   <trkpt lat="53.6521420" lon="-6.6874030">
    <ele>42.3</ele>
    <time>2025-09-08T16:07:43Z</time>
   </trkpt>
   <trkpt lat="53.6521780" lon="-6.6873440">
    <ele>42.2</ele>
    <time>2025-09-08T16:07:58Z</time>
   </trkpt>
   <trkpt lat="53.6525940" lon="-6.6873590">
    <ele>42.1</ele>
    <time>2025-09-08T16:09:05Z</time>
   </trkpt>
   <trkpt lat="53.6525510" lon="-6.6873960">
    <ele>42.1</ele>
    <time>2025-09-08T16:09:25Z</time>
   </trkpt>
   <trkpt lat="53.6522250" lon="-6.6871870">
    <ele>42.2</ele>
    <time>2025-09-08T16:10:16Z</time>
   </trkpt>
   <trkpt lat="53.6522320" lon="-6.6872740">
    <ele>42.2</ele>
    <time>2025-09-08T16:10:22Z</time>
   </trkpt>
   <trkpt lat="53.6521940" lon="-6.6873330">
    <ele>42.2</ele>
    <time>2025-09-08T16:10:35Z</time>
   </trkpt>
   <trkpt lat="53.6521750" lon="-6.6874170">
    <ele>42.2</ele>
    <time>2025-09-08T16:10:40Z</time>
   </trkpt>
   <trkpt lat="53.6521650" lon="-6.6873410">
    <ele>42.2</ele>
    <time>2025-09-08T16:11:00Z</time>
   </trkpt>
   <trkpt lat="53.6521450" lon="-6.6874100">
    <ele>42.2</ele>
    <time>2025-09-08T16:11:18Z</time>
   </trkpt>
   <trkpt lat="53.6521730" lon="-6.6874770">
    <ele>42.3</ele>
    <time>2025-09-08T16:12:21Z</time>
   </trkpt>
   <trkpt lat="53.6522530" lon="-6.6875070">
    <ele>42.2</ele>
    <time>2025-09-08T16:12:27Z</time>
   </trkpt>
   <trkpt lat="53.6523220" lon="-6.6875330">
    <ele>42.2</ele>
    <time>2025-09-08T16:12:32Z</time>
   </trkpt>
   <trkpt lat="53.6524130" lon="-6.6875020">
    <ele>42.1</ele>
    <time>2025-09-08T16:12:37Z</time>
   </trkpt>
   <trkpt lat="53.6524890" lon="-6.6875250">
    <ele>42.0</ele>
    <time>2025-09-08T16:12:43Z</time>
   </trkpt>
   <trkpt lat="53.6525640" lon="-6.6875320">
    <ele>42.0</ele>
    <time>2025-09-08T16:12:48Z</time>
   </trkpt>
   <trkpt lat="53.6526300" lon="-6.6875410">
    <ele>42.0</ele>
    <time>2025-09-08T16:12:53Z</time>
   </trkpt>
   <trkpt lat="53.6526980" lon="-6.6875230">
    <ele>42.1</ele>
    <time>2025-09-08T16:12:58Z</time>
   </trkpt>
   <trkpt lat="53.6527740" lon="-6.6874990">
    <ele>42.1</ele>
    <time>2025-09-08T16:13:04Z</time>
   </trkpt>
   <trkpt lat="53.6528440" lon="-6.6874760">
    <ele>42.2</ele>
    <time>2025-09-08T16:13:09Z</time>
   </trkpt>
   <trkpt lat="53.6529070" lon="-6.6874450">
    <ele>42.3</ele>
    <time>2025-09-08T16:13:15Z</time>
   </trkpt>
   <trkpt lat="53.6529530" lon="-6.6873650">
    <ele>42.5</ele>
    <time>2025-09-08T16:13:20Z</time>
   </trkpt>
   <trkpt lat="53.6530120" lon="-6.6873420">
    <ele>42.7</ele>
    <time>2025-09-08T16:13:26Z</time>
   </trkpt>
   <trkpt lat="53.6530710" lon="-6.6873340">
    <ele>42.9</ele>
    <time>2025-09-08T16:13:31Z</time>
   </trkpt>
   <trkpt lat="53.6531320" lon="-6.6872900">
    <ele>43.0</ele>
    <time>2025-09-08T16:13:37Z</time>
   </trkpt>
   <trkpt lat="53.6531800" lon="-6.6872600">
    <ele>43.2</ele>
    <time>2025-09-08T16:13:42Z</time>
   </trkpt>
   <trkpt lat="53.6532160" lon="-6.6871930">
    <ele>43.4</ele>
    <time>2025-09-08T16:13:47Z</time>
   </trkpt>
   <trkpt lat="53.6532490" lon="-6.6870890">
    <ele>43.6</ele>
    <time>2025-09-08T16:13:53Z</time>
   </trkpt>
   <trkpt lat="53.6532820" lon="-6.6870200">
    <ele>43.8</ele>
    <time>2025-09-08T16:13:58Z</time>
   </trkpt>
   <trkpt lat="53.6533380" lon="-6.6870180">
    <ele>44.2</ele>
    <time>2025-09-08T16:14:41Z</time>
   </trkpt>
   <trkpt lat="53.6533660" lon="-6.6868670">
    <ele>44.3</ele>
    <time>2025-09-08T16:14:46Z</time>
   </trkpt>
   <trkpt lat="53.6533880" lon="-6.6867150">
    <ele>44.6</ele>
    <time>2025-09-08T16:14:52Z</time>
   </trkpt>
   <trkpt lat="53.6534530" lon="-6.6866900">
    <ele>44.8</ele>
    <time>2025-09-08T16:14:57Z</time>
   </trkpt>
   <trkpt lat="53.6535310" lon="-6.6866220">
    <ele>45.0</ele>
    <time>2025-09-08T16:15:03Z</time>
   </trkpt>
   <trkpt lat="53.6535870" lon="-6.6865510">
    <ele>45.1</ele>
    <time>2025-09-08T16:15:08Z</time>
   </trkpt>
   <trkpt lat="53.6536530" lon="-6.6864860">
    <ele>45.2</ele>
    <time>2025-09-08T16:15:14Z</time>
   </trkpt>
   <trkpt lat="53.6536890" lon="-6.6864320">
    <ele>45.2</ele>
    <time>2025-09-08T16:15:19Z</time>
   </trkpt>
   <trkpt lat="53.6537430" lon="-6.6863900">
    <ele>45.3</ele>
    <time>2025-09-08T16:15:24Z</time>
   </trkpt>
   <trkpt lat="53.6538150" lon="-6.6861970">
    <ele>45.3</ele>
    <time>2025-09-08T16:24:33Z</time>
   </trkpt>
   <trkpt lat="53.6538890" lon="-6.6862580">
    <ele>45.2</ele>
    <time>2025-09-08T16:24:38Z</time>
   </trkpt>
   <trkpt lat="53.6539330" lon="-6.6862800">
    <ele>45.1</ele>
    <time>2025-09-08T16:24:44Z</time>
   </trkpt>
   <trkpt lat="53.6539960" lon="-6.6862470">
    <ele>45.0</ele>
    <time>2025-09-08T16:24:50Z</time>
   </trkpt>
   <trkpt lat="53.6540700" lon="-6.6861870">
    <ele>44.8</ele>
    <time>2025-09-08T16:24:55Z</time>
   </trkpt>
   <trkpt lat="53.6541160" lon="-6.6860960">
    <ele>44.6</ele>
    <time>2025-09-08T16:25:00Z</time>
   </trkpt>
   <trkpt lat="53.6541770" lon="-6.6860230">
    <ele>44.3</ele>
    <time>2025-09-08T16:25:06Z</time>
   </trkpt>
   <trkpt lat="53.6542150" lon="-6.6859070">
    <ele>44.1</ele>
    <time>2025-09-08T16:25:11Z</time>
   </trkpt>
   <trkpt lat="53.6542280" lon="-6.6858010">
    <ele>43.9</ele>
    <time>2025-09-08T16:25:17Z</time>
   </trkpt>
   <trkpt lat="53.6542660" lon="-6.6858480">
    <ele>43.6</ele>
    <time>2025-09-08T16:25:25Z</time>
   </trkpt>
   <trkpt lat="53.6543080" lon="-6.6858840">
    <ele>43.5</ele>
    <time>2025-09-08T16:25:31Z</time>
   </trkpt>
   <trkpt lat="53.6543440" lon="-6.6857900">
    <ele>42.9</ele>
    <time>2025-09-08T16:32:01Z</time>
   </trkpt>
   <trkpt lat="53.6544200" lon="-6.6858510">
    <ele>42.7</ele>
    <time>2025-09-08T16:32:07Z</time>
   </trkpt>
   <trkpt lat="53.6544800" lon="-6.6859130">
    <ele>42.4</ele>
    <time>2025-09-08T16:32:12Z</time>
   </trkpt>
   <trkpt lat="53.6545190" lon="-6.6858280">
    <ele>42.0</ele>
    <time>2025-09-08T16:32:27Z</time>
   </trkpt>
   <trkpt lat="53.6545830" lon="-6.6856770">
    <ele>41.5</ele>
    <time>2025-09-08T16:32:33Z</time>
   </trkpt>
   <trkpt lat="53.6546510" lon="-6.6856400">
    <ele>41.0</ele>
    <time>2025-09-08T16:32:38Z</time>
   </trkpt>
   <trkpt lat="53.6547120" lon="-6.6856120">
    <ele>40.5</ele>
    <time>2025-09-08T16:32:43Z</time>
   </trkpt>
   <trkpt lat="53.6547700" lon="-6.6856150">
    <ele>40.0</ele>
    <time>2025-09-08T16:32:49Z</time>
   </trkpt>
   <trkpt lat="53.6548310" lon="-6.6856400">
    <ele>39.5</ele>
    <time>2025-09-08T16:32:54Z</time>
   </trkpt>
   <trkpt lat="53.6548530" lon="-6.6855720">
    <ele>39.1</ele>
    <time>2025-09-08T16:33:04Z</time>
   </trkpt>
   <trkpt lat="53.6548760" lon="-6.6856550">
    <ele>38.9</ele>
    <time>2025-09-08T16:33:39Z</time>
   </trkpt>
   <trkpt lat="53.6549010" lon="-6.6857680">
    <ele>38.8</ele>
    <time>2025-09-08T16:33:44Z</time>
   </trkpt>
   <trkpt lat="53.6549340" lon="-6.6858910">
    <ele>38.6</ele>
    <time>2025-09-08T16:33:49Z</time>
   </trkpt>
   <trkpt lat="53.6549560" lon="-6.6860290">
    <ele>38.5</ele>
    <time>2025-09-08T16:33:55Z</time>
   </trkpt>
   <trkpt lat="53.6549630" lon="-6.6861090">
    <ele>38.5</ele>
    <time>2025-09-08T16:34:01Z</time>
   </trkpt>
   <trkpt lat="53.6549930" lon="-6.6861680">
    <ele>38.4</ele>
    <time>2025-09-08T16:34:15Z</time>
   </trkpt>
   <trkpt lat="53.6550420" lon="-6.6862960">
    <ele>38.4</ele>
    <time>2025-09-08T16:34:20Z</time>
   </trkpt>
   <trkpt lat="53.6550650" lon="-6.6863750">
    <ele>38.3</ele>
    <time>2025-09-08T16:34:25Z</time>
   </trkpt>
   <trkpt lat="53.6550870" lon="-6.6865090">
    <ele>38.3</ele>
    <time>2025-09-08T16:34:31Z</time>
   </trkpt>
   <trkpt lat="53.6551090" lon="-6.6866060">
    <ele>38.4</ele>
    <time>2025-09-08T16:34:36Z</time>
   </trkpt>
   <trkpt lat="53.6551550" lon="-6.6866550">
    <ele>38.3</ele>
    <time>2025-09-08T16:34:42Z</time>
   </trkpt>
   <trkpt lat="53.6551970" lon="-6.6867480">
    <ele>38.3</ele>
    <time>2025-09-08T16:34:48Z</time>
   </trkpt>
   <trkpt lat="53.6552060" lon="-6.6868450">
    <ele>38.3</ele>
    <time>2025-09-08T16:34:53Z</time>
   </trkpt>
   <trkpt lat="53.6552090" lon="-6.6869630">
    <ele>38.5</ele>
    <time>2025-09-08T16:34:59Z</time>
   </trkpt>
   <trkpt lat="53.6552090" lon="-6.6870680">
    <ele>38.7</ele>
    <time>2025-09-08T16:35:04Z</time>
   </trkpt>
   <trkpt lat="53.6552300" lon="-6.6872010">
    <ele>38.9</ele>
    <time>2025-09-08T16:35:09Z</time>
   </trkpt>
   <trkpt lat="53.6552370" lon="-6.6873190">
    <ele>39.1</ele>
    <time>2025-09-08T16:35:14Z</time>
   </trkpt>
   <trkpt lat="53.6552450" lon="-6.6874300">
    <ele>39.3</ele>
    <time>2025-09-08T16:35:20Z</time>
   </trkpt>
   <trkpt lat="53.6552470" lon="-6.6875430">
    <ele>39.5</ele>
    <time>2025-09-08T16:35:25Z</time>
   </trkpt>
   <trkpt lat="53.6552340" lon="-6.6876560">
    <ele>39.6</ele>
    <time>2025-09-08T16:35:31Z</time>
   </trkpt>
   <trkpt lat="53.6552530" lon="-6.6877300">
    <ele>39.6</ele>
    <time>2025-09-08T16:35:36Z</time>
   </trkpt>
   <trkpt lat="53.6553180" lon="-6.6877560">
    <ele>39.6</ele>
    <time>2025-09-08T16:35:41Z</time>
   </trkpt>
   <trkpt lat="53.6553760" lon="-6.6877870">
    <ele>39.6</ele>
    <time>2025-09-08T16:35:46Z</time>
   </trkpt>
   <trkpt lat="53.6554540" lon="-6.6877770">
    <ele>39.6</ele>
    <time>2025-09-08T16:35:52Z</time>
   </trkpt>
   <trkpt lat="53.6555120" lon="-6.6877500">
    <ele>39.6</ele>
    <time>2025-09-08T16:36:52Z</time>
   </trkpt>
   <trkpt lat="53.6556090" lon="-6.6877280">
    <ele>39.6</ele>
    <time>2025-09-08T16:36:57Z</time>
   </trkpt>
   <trkpt lat="53.6556810" lon="-6.6877130">
    <ele>39.6</ele>
    <time>2025-09-08T16:37:02Z</time>
   </trkpt>
   <trkpt lat="53.6557260" lon="-6.6876300">
    <ele>39.5</ele>
    <time>2025-09-08T16:37:08Z</time>
   </trkpt>
   <trkpt lat="53.6557740" lon="-6.6875220">
    <ele>39.4</ele>
    <time>2025-09-08T16:37:14Z</time>
   </trkpt>
   <trkpt lat="53.6558110" lon="-6.6874310">
    <ele>39.2</ele>
    <time>2025-09-08T16:37:19Z</time>
   </trkpt>
   <trkpt lat="53.6558210" lon="-6.6872970">
    <ele>38.9</ele>
    <time>2025-09-08T16:37:25Z</time>
   </trkpt>
   <trkpt lat="53.6557930" lon="-6.6871450">
    <ele>38.5</ele>
    <time>2025-09-08T16:37:31Z</time>
   </trkpt>
   <trkpt lat="53.6557750" lon="-6.6870420">
    <ele>38.0</ele>
    <time>2025-09-08T16:37:36Z</time>
   </trkpt>
   <trkpt lat="53.6557670" lon="-6.6869330">
    <ele>37.7</ele>
    <time>2025-09-08T16:37:41Z</time>
   </trkpt>
   <trkpt lat="53.6557910" lon="-6.6868490">
    <ele>37.2</ele>
    <time>2025-09-08T16:37:47Z</time>
   </trkpt>
   <trkpt lat="53.6558360" lon="-6.6868650">
    <ele>36.7</ele>
    <time>2025-09-08T16:38:24Z</time>
   </trkpt>
  </trkseg>
 </trk>
</gpx>
